createdAt,value
2017-09-11T00:00:32.414Z,74.31
2017-09-11T00:01:12.998Z,74.41
2017-09-11T00:01:53.521Z,73.83
2017-09-11T00:02:34.092Z,73.65
2017-09-11T00:03:14.615Z,74.31
2017-09-11T00:03:55.205Z,73.45
2017-09-11T00:04:35.848Z,74.31
2017-09-11T00:05:16.426Z,74.31
2017-09-11T00:05:56.926Z,73.83
2017-09-11T00:06:37.595Z,73.74
2017-09-11T00:07:18.196Z,73.45
2017-09-11T00:07:58.741Z,73.45
2017-09-11T00:08:39.279Z,74.31
2017-09-11T00:09:19.841Z,74.22
2017-09-11T00:10:00.391Z,74.02
2017-09-11T00:10:40.899Z,73.83
2017-09-11T00:11:21.445Z,74.22
2017-09-11T00:12:02.035Z,73.65
2017-09-11T00:12:42.625Z,74.22
2017-09-11T00:13:23.122Z,74.02
2017-09-11T00:14:03.705Z,74.22
2017-09-11T00:14:44.265Z,74.41
2017-09-11T00:15:24.817Z,73.65
2017-09-11T00:16:05.356Z,73.65
2017-09-11T00:16:45.886Z,74.12
2017-09-11T00:17:26.428Z,73.83
2017-09-11T00:18:06.937Z,74.51
2017-09-11T00:18:47.515Z,74.22
2017-09-11T00:19:28.060Z,73.74
2017-09-11T00:20:08.564Z,74.02
2017-09-11T00:20:49.105Z,74.41
2017-09-11T00:21:29.669Z,74.31
2017-09-11T00:22:10.151Z,73.93
2017-09-11T00:22:50.724Z,73.83
2017-09-11T00:23:31.269Z,74.12
2017-09-11T00:24:11.881Z,74.02
2017-09-11T00:24:52.457Z,73.93
2017-09-11T00:25:32.987Z,74.02
2017-09-11T00:26:13.512Z,74.12
2017-09-11T00:26:54.029Z,74.12
2017-09-11T00:27:34.535Z,73.35
2017-09-11T00:28:15.063Z,73.26
2017-09-11T00:28:55.616Z,73.93
2017-09-11T00:29:36.163Z,74.02
2017-09-11T00:30:16.700Z,73.65
2017-09-11T00:30:57.268Z,73.26
2017-09-11T00:31:37.813Z,73.93
2017-09-11T00:32:18.336Z,73.55
2017-09-11T00:32:58.857Z,73.74
2017-09-11T00:33:39.368Z,73.45
2017-09-11T00:34:19.894Z,73.65
2017-09-11T00:35:00.429Z,73.83
2017-09-11T00:35:41.021Z,73.45
2017-09-11T00:36:21.552Z,73.55
2017-09-11T00:37:02.069Z,73.55
2017-09-11T00:37:42.590Z,73.65
2017-09-11T00:38:23.141Z,73.55
2017-09-11T00:39:03.679Z,73.07
2017-09-11T00:39:44.220Z,72.88
2017-09-11T00:40:24.741Z,73.26
2017-09-11T00:41:05.236Z,73.07
2017-09-11T00:41:45.758Z,73.45
2017-09-11T00:42:26.299Z,72.97
2017-09-11T00:43:06.838Z,72.78
2017-09-11T00:43:47.368Z,73.55
2017-09-11T00:44:27.899Z,73.45
2017-09-11T00:45:08.445Z,73.07
2017-09-11T00:45:49.002Z,73.07
2017-09-11T00:46:29.540Z,72.97
2017-09-11T00:47:10.074Z,73.45
2017-09-11T00:47:50.574Z,73.35
2017-09-11T00:48:31.107Z,72.78
2017-09-11T00:49:11.688Z,72.88
2017-09-11T00:49:52.197Z,73.45
2017-09-11T00:50:32.741Z,73.55
2017-09-11T00:51:13.282Z,73.26
2017-09-11T00:51:53.823Z,73.74
2017-09-11T00:52:34.384Z,73.55
2017-09-11T00:53:14.913Z,72.97
2017-09-11T00:53:55.467Z,74.02
2017-09-11T00:54:36.797Z,74.02
2017-09-11T00:55:17.351Z,73.83
2017-09-11T00:55:57.905Z,74.02
2017-09-11T00:56:38.447Z,73.74
2017-09-11T00:57:18.966Z,73.93
2017-09-11T00:57:59.499Z,74.12
2017-09-11T00:58:40.035Z,74.02
2017-09-11T00:59:20.591Z,73.93
2017-09-11T01:00:01.107Z,73.93
2017-09-11T01:00:41.681Z,74.22
2017-09-11T01:01:22.164Z,73.74
2017-09-11T01:02:02.705Z,73.93
2017-09-11T01:02:43.285Z,73.35
2017-09-11T01:03:23.817Z,73.35
2017-09-11T01:04:04.349Z,73.45
2017-09-11T01:04:44.883Z,73.65
2017-09-11T01:05:25.441Z,73.45
2017-09-11T01:06:05.950Z,73.26
2017-09-11T01:06:46.514Z,73.65
2017-09-11T01:07:27.012Z,73.93
2017-09-11T01:08:07.547Z,73.45
2017-09-11T01:08:48.071Z,73.93
2017-09-11T01:09:28.630Z,73.55
2017-09-11T01:10:09.158Z,73.93
2017-09-11T01:10:49.708Z,74.12
2017-09-11T01:11:30.262Z,74.02
2017-09-11T01:12:10.788Z,74.12
2017-09-11T01:12:51.308Z,74.12
2017-09-11T01:13:31.847Z,74.02
2017-09-11T01:14:12.383Z,73.74
2017-09-11T01:14:52.916Z,73.74
2017-09-11T01:15:33.491Z,73.55
2017-09-11T01:16:14.012Z,73.74
2017-09-11T01:16:54.596Z,74.02
2017-09-11T01:17:35.122Z,73.83
2017-09-11T01:18:15.651Z,74.31
2017-09-11T01:18:56.219Z,74.51
2017-09-11T01:19:36.711Z,74.22
2017-09-11T01:20:17.273Z,73.45
2017-09-11T01:20:57.814Z,74.02
2017-09-11T01:21:38.368Z,74.12
2017-09-11T01:22:18.887Z,74.31
2017-09-11T01:22:59.412Z,73.83
2017-09-11T01:23:39.957Z,73.93
2017-09-11T01:24:20.508Z,73.74
2017-09-11T01:25:00.998Z,73.65
2017-09-11T01:25:42.106Z,74.12
2017-09-11T01:26:22.644Z,73.93
2017-09-11T01:27:03.175Z,73.93
2017-09-11T01:27:43.678Z,73.83
2017-09-11T01:28:24.219Z,73.74
2017-09-11T01:29:04.745Z,73.93
2017-09-11T01:29:45.266Z,73.83
2017-09-11T01:30:25.779Z,73.45
2017-09-11T01:31:06.368Z,74.31
2017-09-11T01:31:46.921Z,73.99
2017-09-11T01:32:27.436Z,74.41
2017-09-11T01:33:08.010Z,73.9
2017-09-11T01:33:48.525Z,74.27
2017-09-11T01:34:29.051Z,74.6
2017-09-11T01:35:09.586Z,73.93
2017-09-11T01:35:50.094Z,73.74
2017-09-11T01:36:30.664Z,73.93
2017-09-11T01:37:11.185Z,73.83
2017-09-11T01:37:51.708Z,74.12
2017-09-11T01:38:32.261Z,74.31
2017-09-11T01:39:12.808Z,73.74
2017-09-11T01:39:53.320Z,73.51
2017-09-11T01:40:33.862Z,73.7
2017-09-11T01:41:14.374Z,74.47
2017-09-11T01:41:54.918Z,74.18
2017-09-11T01:42:35.460Z,74.27
2017-09-11T01:43:15.972Z,74.18
2017-09-11T01:43:56.531Z,74.37
2017-09-11T01:44:37.047Z,74.47
2017-09-11T01:45:17.599Z,73.93
2017-09-11T01:45:58.147Z,74.18
2017-09-11T01:46:38.689Z,74.47
2017-09-11T01:47:19.206Z,74.57
2017-09-11T01:47:59.775Z,74.66
2017-09-11T01:48:40.294Z,74.47
2017-09-11T01:49:20.840Z,75.04
2017-09-11T01:50:01.325Z,74.95
2017-09-11T01:50:41.861Z,75.52
2017-09-11T01:51:22.400Z,75.33
2017-09-11T01:52:02.951Z,75.04
2017-09-11T01:52:43.457Z,75.14
2017-09-11T01:53:24.006Z,74.95
2017-09-11T01:54:04.528Z,74.85
2017-09-11T01:54:45.100Z,75.04
2017-09-11T01:55:25.641Z,75.23
2017-09-11T01:56:06.200Z,75.33
2017-09-11T01:56:46.791Z,75.14
2017-09-11T01:57:27.333Z,75.43
2017-09-11T01:58:07.859Z,75.04
2017-09-11T01:58:48.402Z,74.95
2017-09-11T01:59:28.954Z,75.43
2017-09-11T02:00:09.507Z,75.33
2017-09-11T02:00:50.020Z,75.04
2017-09-11T02:01:30.547Z,74.95
2017-09-11T02:02:11.083Z,75.52
2017-09-11T02:02:51.660Z,75.23
2017-09-11T02:03:32.156Z,75.52
2017-09-11T02:04:12.725Z,75.33
2017-09-11T02:04:53.262Z,75.23
2017-09-11T02:05:33.807Z,75.52
2017-09-11T02:06:14.370Z,75.04
2017-09-11T02:06:54.921Z,75.04
2017-09-11T02:07:35.447Z,75.04
2017-09-11T02:08:15.986Z,75.04
2017-09-11T02:08:56.549Z,75.14
2017-09-11T02:09:37.089Z,75.33
2017-09-11T02:10:17.653Z,75.14
2017-09-11T02:10:58.170Z,75.56
2017-09-11T02:11:38.687Z,74.76
2017-09-11T02:12:19.260Z,74.66
2017-09-11T02:12:59.770Z,75.04
2017-09-11T02:13:40.342Z,74.76
2017-09-11T02:14:20.880Z,75.04
2017-09-11T02:15:01.414Z,74.47
2017-09-11T02:15:41.970Z,74.66
2017-09-11T02:16:22.495Z,74.95
2017-09-11T02:17:03.029Z,75.43
2017-09-11T02:17:43.564Z,74.76
2017-09-11T02:18:24.068Z,74.85
2017-09-11T02:19:04.609Z,74.98
2017-09-11T02:19:45.296Z,74.79
2017-09-11T02:20:25.759Z,74.79
2017-09-11T02:21:06.341Z,74.6
2017-09-11T02:21:46.858Z,74.89
2017-09-11T02:22:27.383Z,74.85
2017-09-11T02:23:07.941Z,74.66
2017-09-11T02:23:48.490Z,74.76
2017-09-11T02:24:29.033Z,74.98
2017-09-11T02:25:09.582Z,74.89
2017-09-11T02:25:50.124Z,74.6
2017-09-11T02:26:30.640Z,74.37
2017-09-11T02:27:11.150Z,74.22
2017-09-11T02:27:51.692Z,74.6
2017-09-11T02:28:32.244Z,74.6
2017-09-11T02:29:12.798Z,74.47
2017-09-11T02:29:53.352Z,74.57
2017-09-11T02:30:33.888Z,74.89
2017-09-11T02:31:14.429Z,75.04
2017-09-11T02:31:54.994Z,75.43
2017-09-11T02:32:35.533Z,75.52
2017-09-11T02:33:16.060Z,75.62
2017-09-11T02:33:56.574Z,75.04
2017-09-11T02:34:37.116Z,75.04
2017-09-11T02:35:17.633Z,75.43
2017-09-11T02:35:58.177Z,75.71
2017-09-11T02:36:39.223Z,75.71
2017-09-11T02:37:19.810Z,75.9
2017-09-11T02:38:00.276Z,76
2017-09-11T02:38:40.804Z,75.9
2017-09-11T02:39:21.347Z,76.29
2017-09-11T02:40:01.872Z,76
2017-09-11T02:40:42.384Z,75.81
2017-09-11T02:41:22.974Z,75.9
2017-09-11T02:42:03.525Z,75.62
2017-09-11T02:42:44.017Z,75.43
2017-09-11T02:43:24.539Z,75.9
2017-09-11T02:44:05.093Z,75.9
2017-09-11T02:44:45.577Z,76
2017-09-11T02:45:26.115Z,76.1
2017-09-11T02:46:06.649Z,75.52
2017-09-11T02:46:47.209Z,75.23
2017-09-11T02:47:27.745Z,75.23
2017-09-11T02:48:08.277Z,75.52
2017-09-11T02:48:48.781Z,75.9
2017-09-11T02:49:29.323Z,76.1
2017-09-11T02:50:09.820Z,76.19
2017-09-11T02:50:50.406Z,75.9
2017-09-11T02:51:30.965Z,75.9
2017-09-11T02:52:11.443Z,76.39
2017-09-11T02:52:52.005Z,76.29
2017-09-11T02:53:32.519Z,76
2017-09-11T02:54:13.072Z,76
2017-09-11T02:54:53.592Z,76.39
2017-09-11T02:55:34.112Z,76.86
2017-09-11T02:56:14.672Z,76.57
2017-09-11T02:56:55.193Z,76.29
2017-09-11T02:57:35.720Z,76.1
2017-09-11T02:58:16.232Z,76.29
2017-09-11T02:58:56.807Z,76.29
2017-09-11T02:59:37.322Z,76.39
2017-09-11T03:00:17.904Z,76.19
2017-09-11T03:00:58.421Z,76.29
2017-09-11T03:01:38.975Z,76.19
2017-09-11T03:02:19.512Z,76.29
2017-09-11T03:03:00.100Z,76.1
2017-09-11T03:03:40.632Z,76.1
2017-09-11T03:04:21.159Z,76.1
2017-09-11T03:05:01.686Z,76.19
2017-09-11T03:05:42.218Z,76.29
2017-09-11T03:06:22.788Z,75.81
2017-09-11T03:07:03.213Z,76.29
2017-09-11T03:07:43.755Z,76.29
2017-09-11T03:08:24.298Z,76.1
2017-09-11T03:09:04.850Z,76.19
2017-09-11T03:09:45.335Z,76.39
2017-09-11T03:10:25.856Z,76.48
2017-09-11T03:11:06.441Z,76
2017-09-11T03:11:46.929Z,75.81
2017-09-11T03:12:27.462Z,75.71
2017-09-11T03:13:07.977Z,75.81
2017-09-11T03:13:48.542Z,75.43
2017-09-11T03:14:29.063Z,75.33
2017-09-11T03:15:09.601Z,75.23
2017-09-11T03:15:50.124Z,75.52
2017-09-11T03:16:30.658Z,76
2017-09-11T03:17:11.172Z,75.2
2017-09-11T03:17:51.729Z,75.71
2017-09-11T03:18:32.273Z,75.87
2017-09-11T03:19:12.732Z,75.9
2017-09-11T03:19:53.281Z,75.52
2017-09-11T03:20:33.833Z,75.33
2017-09-11T03:21:14.358Z,75.04
2017-09-11T03:21:54.933Z,74.57
2017-09-11T03:22:35.433Z,74.76
2017-09-11T03:23:15.990Z,74.37
2017-09-11T03:23:56.494Z,73.9
2017-09-11T03:24:37.065Z,74.37
2017-09-11T03:25:17.579Z,74.76
2017-09-11T03:25:58.182Z,74.66
2017-09-11T03:26:38.687Z,74.66
2017-09-11T03:27:19.218Z,74.85
2017-09-11T03:27:59.757Z,74.95
2017-09-11T03:28:40.333Z,75.04
2017-09-11T03:29:20.863Z,75.14
2017-09-11T03:30:01.390Z,74.57
2017-09-11T03:30:41.937Z,74.57
2017-09-11T03:31:22.452Z,74.66
2017-09-11T03:32:03.000Z,74.57
2017-09-11T03:32:43.521Z,74.76
2017-09-11T03:33:24.059Z,74.57
2017-09-11T03:34:04.579Z,74.57
2017-09-11T03:34:45.141Z,74.37
2017-09-11T03:35:25.683Z,73.8
2017-09-11T03:36:06.192Z,74.66
2017-09-11T03:36:46.781Z,74.47
2017-09-11T03:37:27.308Z,74.66
2017-09-11T03:38:07.916Z,74.47
2017-09-11T03:38:48.395Z,74.66
2017-09-11T03:39:28.906Z,74.27
2017-09-11T03:40:09.429Z,73.8
2017-09-11T03:40:49.994Z,73.7
2017-09-11T03:41:30.506Z,74.37
2017-09-11T03:42:11.048Z,74.18
2017-09-11T03:42:51.656Z,73.99
2017-09-11T03:43:32.220Z,74.66
2017-09-11T03:44:12.757Z,74.57
2017-09-11T03:44:53.267Z,74.18
2017-09-11T03:45:33.811Z,74.47
2017-09-11T03:46:14.324Z,73.8
2017-09-11T03:46:54.885Z,73.9
2017-09-11T03:47:35.431Z,73.61
2017-09-11T03:48:15.936Z,73.61
2017-09-11T03:48:56.490Z,73.99
2017-09-11T03:49:37.023Z,73.9
2017-09-11T03:50:17.571Z,74.08
2017-09-11T03:50:58.099Z,73.8
2017-09-11T03:51:38.637Z,73.55
2017-09-11T03:52:19.146Z,73.51
2017-09-11T03:52:59.688Z,73.32
2017-09-11T03:53:40.243Z,73.51
2017-09-11T03:54:20.752Z,73.65
2017-09-11T03:55:01.322Z,73.55
2017-09-11T03:55:41.863Z,73.65
2017-09-11T03:56:22.409Z,73.83
2017-09-11T03:57:02.961Z,73.65
2017-09-11T03:57:43.478Z,73.35
2017-09-11T03:58:23.989Z,73.65
2017-09-11T03:59:04.553Z,73.65
2017-09-11T03:59:45.126Z,73.65
2017-09-11T04:00:25.635Z,73.45
2017-09-11T04:01:06.193Z,73.16
2017-09-11T04:01:46.735Z,73.83
2017-09-11T04:02:27.282Z,73.45
2017-09-11T04:03:07.801Z,73.65
2017-09-11T04:03:48.348Z,73.26
2017-09-11T04:04:28.875Z,72.97
2017-09-11T04:05:09.436Z,73.07
2017-09-11T04:05:49.952Z,73.07
2017-09-11T04:06:30.499Z,73.26
2017-09-11T04:07:11.006Z,73.74
2017-09-11T04:07:51.597Z,72.84
2017-09-11T04:08:32.123Z,72.78
2017-09-11T04:09:12.669Z,72.74
2017-09-11T04:09:53.216Z,73.03
2017-09-11T04:10:33.787Z,72.88
2017-09-11T04:11:14.320Z,73.16
2017-09-11T04:11:54.970Z,73.26
2017-09-11T04:12:35.476Z,73.03
2017-09-11T04:13:16.010Z,72.88
2017-09-11T04:13:56.542Z,72.68
2017-09-11T04:14:37.052Z,72.68
2017-09-11T04:15:17.601Z,73.07
2017-09-11T04:15:58.120Z,73.55
2017-09-11T04:16:38.621Z,73.45
2017-09-11T04:17:19.144Z,73.99
2017-09-11T04:17:59.720Z,74.02
2017-09-11T04:18:40.222Z,73.35
2017-09-11T04:19:20.734Z,74.22
2017-09-11T04:20:01.263Z,74.22
2017-09-11T04:20:41.833Z,73.83
2017-09-11T04:21:22.341Z,73.55
2017-09-11T04:22:02.928Z,73.45
2017-09-11T04:22:43.458Z,73.93
2017-09-11T04:23:24.026Z,74.02
2017-09-11T04:24:04.562Z,74.12
2017-09-11T04:24:45.105Z,73.55
2017-09-11T04:25:25.620Z,73.83
2017-09-11T04:26:06.191Z,73.65
2017-09-11T04:26:46.725Z,73.83
2017-09-11T04:27:27.211Z,73.93
2017-09-11T04:28:07.773Z,74.22
2017-09-11T04:28:48.305Z,74.51
2017-09-11T04:29:28.852Z,74.12
2017-09-11T04:30:09.401Z,74.51
2017-09-11T04:30:49.962Z,74.6
2017-09-11T04:31:30.519Z,74.31
2017-09-11T04:32:11.004Z,74.12
2017-09-11T04:32:51.552Z,74.31
2017-09-11T04:33:32.080Z,73.74
2017-09-11T04:34:12.615Z,73.74
2017-09-11T04:34:53.141Z,74.02
2017-09-11T04:35:33.686Z,74.22
2017-09-11T04:36:14.223Z,74.22
2017-09-11T04:36:54.726Z,74.41
2017-09-11T04:37:35.284Z,74.31
2017-09-11T04:38:15.808Z,74.02
2017-09-11T04:38:56.321Z,74.12
2017-09-11T04:39:36.873Z,74.31
2017-09-11T04:40:17.425Z,74.41
2017-09-11T04:40:57.945Z,74.22
2017-09-11T04:41:38.457Z,74.41
2017-09-11T04:42:18.993Z,73.83
2017-09-11T04:42:59.544Z,74.02
2017-09-11T04:43:40.052Z,74.22
2017-09-11T04:44:20.591Z,74.22
2017-09-11T04:45:01.175Z,74.31
2017-09-11T04:45:41.738Z,73.83
2017-09-11T04:46:22.342Z,74.12
2017-09-11T04:47:02.796Z,74.44
2017-09-11T04:47:43.356Z,74.41
2017-09-11T04:48:23.880Z,74.31
2017-09-11T04:49:04.434Z,74.22
2017-09-11T04:49:44.950Z,74.41
2017-09-11T04:50:25.478Z,74.41
2017-09-11T04:51:06.007Z,74.6
2017-09-11T04:51:46.570Z,74.6
2017-09-11T04:52:27.110Z,74.79
2017-09-11T04:53:07.658Z,74.79
2017-09-11T04:53:48.192Z,74.69
2017-09-11T04:54:28.743Z,74.89
2017-09-11T04:55:09.314Z,74.89
2017-09-11T04:55:49.847Z,74.98
2017-09-11T04:56:30.417Z,74.6
2017-09-11T04:57:10.984Z,74.79
2017-09-11T04:57:51.510Z,73.83
2017-09-11T04:58:31.996Z,74.6
2017-09-11T04:59:12.514Z,74.41
2017-09-11T04:59:53.072Z,74.69
2017-09-11T05:00:33.644Z,74.79
2017-09-11T05:01:14.175Z,74.22
2017-09-11T05:01:54.742Z,74.6
2017-09-11T05:02:35.254Z,74.35
2017-09-11T05:03:15.799Z,74.12
2017-09-11T05:03:56.293Z,74.22
2017-09-11T05:04:36.835Z,73.77
2017-09-11T05:05:17.397Z,73.83
2017-09-11T05:05:57.922Z,73.97
2017-09-11T05:06:38.475Z,74.22
2017-09-11T05:07:18.975Z,74.51
2017-09-11T05:07:59.509Z,74.02
2017-09-11T05:08:40.061Z,73.93
2017-09-11T05:09:20.637Z,74.02
2017-09-11T05:10:01.141Z,73.83
2017-09-11T05:10:41.647Z,74.41
2017-09-11T05:11:22.174Z,74.35
2017-09-11T05:12:02.732Z,73.45
2017-09-11T05:12:43.296Z,73.74
2017-09-11T05:13:23.813Z,73.68
2017-09-11T05:14:04.373Z,73.49
2017-09-11T05:14:45.154Z,74.16
2017-09-11T05:15:25.675Z,74.26
2017-09-11T05:16:06.174Z,73.97
2017-09-11T05:16:46.736Z,73.97
2017-09-11T05:17:27.227Z,73.49
2017-09-11T05:18:07.730Z,73.1
2017-09-11T05:18:48.270Z,72.91
2017-09-11T05:19:28.785Z,72.72
2017-09-11T05:20:09.373Z,73.97
2017-09-11T05:20:49.918Z,76.17
2017-09-11T05:21:30.455Z,77.61
2017-09-11T05:22:10.980Z,78.47
2017-09-11T05:22:51.535Z,78.09
2017-09-11T05:23:32.062Z,77.33
2017-09-11T05:24:13.107Z,80.97
2017-09-11T05:24:53.698Z,80.97
2017-09-11T05:25:34.256Z,79.57
2017-09-11T05:26:14.780Z,80.34
2017-09-11T05:26:55.260Z,81.26
2017-09-11T05:27:35.798Z,80.87
2017-09-11T05:28:16.299Z,81.16
2017-09-11T05:28:56.805Z,78.9
2017-09-11T05:29:37.358Z,76.17
2017-09-11T05:30:17.892Z,80.97
2017-09-11T05:30:58.435Z,84.18
2017-09-11T05:31:38.967Z,82.54
2017-09-11T05:32:19.493Z,80.43
2017-09-11T05:33:00.002Z,85.04
2017-09-11T05:33:40.527Z,84.85
2017-09-11T05:34:21.091Z,85.62
2017-09-11T05:35:01.643Z,86.29
2017-09-11T05:35:42.158Z,86.19
2017-09-11T05:36:22.723Z,86.68
2017-09-11T05:37:03.306Z,86.96
2017-09-11T05:37:43.852Z,84.27
2017-09-11T05:38:24.384Z,80.63
2017-09-11T05:39:05.412Z,80.43
2017-09-11T05:39:45.916Z,85.71
2017-09-11T05:40:26.610Z,82.35
2017-09-11T05:41:07.409Z,77.17
2017-09-11T05:41:47.980Z,81.49
2017-09-11T05:42:28.739Z,83.84
2017-09-11T05:43:09.301Z,79.38
2017-09-11T05:43:49.877Z,80.82
2017-09-11T05:44:30.558Z,82.54
2017-09-11T05:45:11.409Z,78.94
2017-09-11T05:45:52.088Z,78.7
2017-09-11T05:46:32.699Z,77.98
2017-09-11T05:47:13.165Z,78.65
2017-09-11T05:47:53.729Z,80.53
2017-09-11T05:48:34.231Z,80.82
2017-09-11T05:49:14.772Z,81.3
2017-09-11T05:49:55.347Z,79.28
2017-09-11T05:50:35.833Z,78.55
2017-09-11T05:51:16.382Z,79.61
2017-09-11T05:51:56.986Z,79.67
2017-09-11T05:52:37.507Z,77.84
2017-09-11T05:53:18.012Z,79.67
2017-09-11T05:53:58.510Z,75.77
2017-09-11T05:54:39.096Z,78.65
2017-09-11T05:55:19.603Z,80.76
2017-09-11T05:56:00.152Z,77.17
2017-09-11T05:56:40.675Z,77.5
2017-09-11T05:57:21.251Z,79.71
2017-09-11T05:58:01.800Z,79.03
2017-09-11T05:58:42.331Z,79.13
2017-09-11T05:59:22.884Z,78.65
2017-09-11T06:00:03.405Z,76.92
2017-09-11T06:00:43.943Z,76.06
2017-09-11T06:01:24.465Z,77.5
2017-09-11T06:02:05.039Z,78.45
2017-09-11T06:02:45.548Z,79.42
2017-09-11T06:03:26.081Z,78.55
2017-09-11T06:04:06.581Z,77.5
2017-09-11T06:04:47.153Z,76.15
2017-09-11T06:05:27.686Z,78.36
2017-09-11T06:06:08.255Z,76.82
2017-09-11T06:06:48.774Z,77.21
2017-09-11T06:07:29.322Z,78.94
2017-09-11T06:08:09.796Z,84.03
2017-09-11T06:08:50.377Z,85.37
2017-09-11T06:09:30.925Z,85.37
2017-09-11T06:10:11.481Z,87.1
2017-09-11T06:10:52.014Z,82.78
2017-09-11T06:11:32.586Z,83.36
2017-09-11T06:12:13.075Z,84.07
2017-09-11T06:12:53.617Z,80.47
2017-09-11T06:13:34.204Z,84.99
2017-09-11T06:14:14.750Z,83.64
2017-09-11T06:14:55.307Z,83.97
2017-09-11T06:15:35.813Z,88.97
2017-09-11T06:16:16.403Z,87.72
2017-09-11T06:16:56.964Z,80.13
2017-09-11T06:17:37.527Z,83.69
2017-09-11T06:18:18.080Z,85.41
2017-09-11T06:18:58.565Z,91.47
2017-09-11T06:19:39.121Z,93.01
2017-09-11T06:20:19.748Z,88.97
2017-09-11T06:21:00.234Z,83.59
2017-09-11T06:21:40.730Z,83.49
2017-09-11T06:22:21.256Z,87.92
2017-09-11T06:23:01.809Z,82.82
2017-09-11T06:23:42.389Z,84.45
2017-09-11T06:24:22.901Z,84.78
2017-09-11T06:25:03.456Z,87.48
2017-09-11T06:25:43.966Z,90.26
2017-09-11T06:26:24.516Z,88.53
2017-09-11T06:27:05.108Z,85.94
2017-09-11T06:27:45.626Z,89.83
2017-09-11T06:28:26.183Z,88.1
2017-09-11T06:29:06.667Z,87.09
2017-09-11T06:29:47.272Z,89.64
2017-09-11T06:30:27.838Z,83.96
2017-09-11T06:31:08.311Z,88.77
2017-09-11T06:31:51.779Z,90.59
2017-09-11T06:32:32.438Z,90.02
2017-09-11T06:33:12.973Z,91.51
2017-09-11T06:33:53.536Z,89.2
2017-09-11T06:34:34.094Z,88.81
2017-09-11T06:35:14.650Z,87.08
2017-09-11T06:35:55.147Z,86.6
2017-09-11T06:36:35.717Z,85.64
2017-09-11T06:37:16.235Z,78.61
2017-09-11T06:37:56.949Z,77.26
2017-09-11T06:38:37.479Z,78.52
2017-09-11T06:39:17.995Z,80.92
2017-09-11T06:39:58.552Z,83.42
2017-09-11T06:40:39.064Z,78.33
2017-09-11T06:41:19.588Z,77.46
2017-09-11T06:42:00.131Z,78.71
2017-09-11T06:42:40.716Z,79.86
2017-09-11T06:43:21.234Z,81.12
2017-09-11T06:44:01.736Z,80.83
2017-09-11T06:44:42.298Z,81.07
2017-09-11T06:45:23.807Z,79.53
2017-09-11T06:46:04.651Z,78.58
2017-09-11T06:46:46.727Z,78.48
2017-09-11T06:47:27.217Z,80.3
2017-09-11T06:48:07.724Z,80.4
2017-09-11T06:48:48.314Z,82.9
2017-09-11T06:49:28.878Z,80.4
2017-09-11T06:50:09.392Z,82.57
2017-09-11T06:50:49.910Z,80.65
2017-09-11T06:51:30.445Z,78.44
2017-09-11T06:52:10.974Z,81.13
2017-09-11T06:52:51.507Z,81.99
2017-09-11T06:53:32.680Z,81.99
2017-09-11T06:54:13.243Z,81.81
2017-09-11T06:54:53.929Z,79.69
2017-09-11T06:55:34.411Z,81.38
2017-09-11T06:56:14.925Z,82.43
2017-09-11T06:56:55.460Z,83.83
2017-09-11T06:57:36.036Z,86.32
2017-09-11T06:58:16.591Z,87.05
2017-09-11T06:58:57.148Z,88.2
2017-09-11T06:59:37.670Z,88.2
2017-09-11T07:00:18.229Z,85.71
2017-09-11T07:00:58.793Z,88.92
2017-09-11T07:01:39.398Z,90.17
2017-09-11T07:02:19.954Z,83.3
2017-09-11T07:03:00.474Z,85.51
2017-09-11T07:03:40.985Z,90.31
2017-09-11T07:04:21.538Z,90.07
2017-09-11T07:05:02.094Z,88.82
2017-09-11T07:05:42.633Z,88.73
2017-09-11T07:06:23.332Z,88.73
2017-09-11T07:07:03.873Z,91.61
2017-09-11T07:07:44.407Z,86.13
2017-09-11T07:08:24.939Z,89.01
2017-09-11T07:09:05.483Z,92.96
2017-09-11T07:09:46.053Z,85.84
2017-09-11T07:10:26.601Z,83.53
2017-09-11T07:11:07.152Z,90.94
2017-09-11T07:11:47.895Z,93.53
2017-09-11T07:12:28.546Z,95.45
2017-09-11T07:13:09.099Z,95.7
2017-09-11T07:13:49.620Z,91.03
2017-09-11T07:14:30.125Z,84.11
2017-09-11T07:15:10.654Z,82.19
2017-09-11T07:15:51.218Z,80.17
2017-09-11T07:16:31.761Z,86.32
2017-09-11T07:17:12.302Z,93.05
2017-09-11T07:17:52.870Z,93.87
2017-09-11T07:18:33.422Z,93.58
2017-09-11T07:19:13.991Z,88.34
2017-09-11T07:19:55.327Z,89.73
2017-09-11T07:20:35.877Z,87.29
2017-09-11T07:21:16.407Z,88.39
2017-09-11T07:21:57.784Z,83.44
2017-09-11T07:22:38.345Z,90.69
2017-09-11T07:23:18.904Z,87.23
2017-09-11T07:23:59.474Z,87.9
2017-09-11T07:24:40.064Z,88.48
2017-09-11T07:25:20.632Z,88
2017-09-11T07:26:01.215Z,90.79
2017-09-11T07:26:41.758Z,89.25
2017-09-11T07:27:22.311Z,86.65
2017-09-11T07:28:02.917Z,88.57
2017-09-11T07:28:43.429Z,87.13
2017-09-11T07:29:23.992Z,85.78
2017-09-11T07:30:04.523Z,87.81
2017-09-11T07:30:45.049Z,89.44
2017-09-11T07:31:25.678Z,85.4
2017-09-11T07:32:06.241Z,84.25
2017-09-11T07:32:46.752Z,80.79
2017-09-11T07:33:27.306Z,85.4
2017-09-11T07:34:07.886Z,84.44
2017-09-11T07:34:48.444Z,80.5
2017-09-11T07:35:28.954Z,79.98
2017-09-11T07:36:09.788Z,81.71
2017-09-11T07:36:50.345Z,82.76
2017-09-11T07:37:30.895Z,78.73
2017-09-11T07:38:11.419Z,79.55
2017-09-11T07:38:52.076Z,82.73
2017-09-11T07:39:32.581Z,81.57
2017-09-11T07:40:13.113Z,84.17
2017-09-11T07:40:53.707Z,86.57
2017-09-11T07:41:34.216Z,83.01
2017-09-11T07:42:14.762Z,87.24
2017-09-11T07:42:55.373Z,91.47
2017-09-11T07:43:36.030Z,87.34
2017-09-11T07:44:16.572Z,89.26
2017-09-11T07:44:57.086Z,94.16
2017-09-11T07:45:37.660Z,89.64
2017-09-11T07:46:18.155Z,90.7
2017-09-11T07:46:58.746Z,88.59
2017-09-11T07:47:39.272Z,87.15
2017-09-11T07:48:19.801Z,89.54
2017-09-11T07:49:00.330Z,90.94
2017-09-11T07:49:40.996Z,87.57
2017-09-11T07:50:22.836Z,84.64
2017-09-11T07:51:03.332Z,84.07
2017-09-11T07:51:43.935Z,86.52
2017-09-11T07:52:24.469Z,87.38
2017-09-11T07:53:05.019Z,86.04
2017-09-11T07:53:45.583Z,91.99
2017-09-11T07:54:26.119Z,90.94
2017-09-11T07:55:06.674Z,88.15
2017-09-11T07:55:47.194Z,92.19
2017-09-11T07:56:27.773Z,94.92
2017-09-11T07:57:08.322Z,95.12
2017-09-11T07:57:48.853Z,94.83
2017-09-11T07:58:29.455Z,89.44
2017-09-11T07:59:09.945Z,86.71
2017-09-11T07:59:50.499Z,90.65
2017-09-11T08:00:31.030Z,93.77
2017-09-11T08:01:11.597Z,95.31
2017-09-11T08:01:52.099Z,92.47
2017-09-11T08:02:32.597Z,87.86
2017-09-11T08:03:13.165Z,90.69
2017-09-11T08:03:53.700Z,91.75
2017-09-11T08:04:34.222Z,87.86
2017-09-11T08:05:14.759Z,90.36
2017-09-11T08:05:55.670Z,97.24
2017-09-11T08:06:36.199Z,90.65
2017-09-11T08:07:16.757Z,94.3
2017-09-11T08:07:57.323Z,97.67
2017-09-11T08:08:37.871Z,99.99
2017-09-11T08:09:18.384Z,99.73
2017-09-11T08:09:58.978Z,97.91
2017-09-11T08:10:39.487Z,91.94
2017-09-11T08:11:20.105Z,98.29
2017-09-11T08:12:00.650Z,93.38
2017-09-11T08:12:41.172Z,98.19
2017-09-11T08:13:21.728Z,99.93
2017-09-11T08:14:02.276Z,92.71
2017-09-11T08:14:42.841Z,95.89
2017-09-11T08:15:23.384Z,95.89
2017-09-11T08:16:03.933Z,95.12
2017-09-11T08:16:44.508Z,97.14
2017-09-11T08:17:25.059Z,97.19
2017-09-11T08:18:05.583Z,96.61
2017-09-11T08:18:46.155Z,98.14
2017-09-11T08:19:26.719Z,96.03
2017-09-11T08:20:07.275Z,89.25
2017-09-11T08:20:47.782Z,93.68
2017-09-11T08:21:28.315Z,96.12
2017-09-11T08:22:08.856Z,95.26
2017-09-11T08:22:49.389Z,88.19
2017-09-11T08:23:29.930Z,90.93
2017-09-11T08:24:10.497Z,89.39
2017-09-11T08:24:51.068Z,85.6
2017-09-11T08:25:31.605Z,90.02
2017-09-11T08:26:12.230Z,94.83
2017-09-11T08:26:52.880Z,90.31
2017-09-11T08:27:33.423Z,91.6
2017-09-11T08:28:14.010Z,93.24
2017-09-11T08:28:54.568Z,93.33
2017-09-11T08:29:35.162Z,93.43
2017-09-11T08:30:15.732Z,89.1
2017-09-11T08:30:56.267Z,89.39
2017-09-11T08:31:36.959Z,90.93
2017-09-11T08:32:17.512Z,87.66
2017-09-11T08:32:58.027Z,88.33
2017-09-11T08:33:38.572Z,88.91
2017-09-11T08:34:19.102Z,89.29
2017-09-11T08:34:59.671Z,88.62
2017-09-11T08:35:40.205Z,88.53
2017-09-11T08:36:20.733Z,88.62
2017-09-11T08:37:01.304Z,88.43
2017-09-11T08:37:41.880Z,87.85
2017-09-11T08:38:22.450Z,88.33
2017-09-11T08:39:03.031Z,88.43
2017-09-11T08:39:43.546Z,88.29
2017-09-11T08:40:24.097Z,88.39
2017-09-11T08:41:04.654Z,89.06
2017-09-11T08:41:45.206Z,86.18
2017-09-11T08:42:25.718Z,85.69
2017-09-11T08:43:06.246Z,87.42
2017-09-11T08:43:46.739Z,85.98
2017-09-11T08:44:27.336Z,89.68